Time;durP1;ratioP1;P1;durP2;ratioP2;P2;SDS_P1;SDS_P2;PMS_P1;PMS_P2;Temp;Humidity;BMP_temperature;BMP_pressure;BME280_temperature;BME280_humidity;BME280_pressure;Samples;Min_cycle;Max_cycle;Signal;HPM_P1;HPM_P2
2022/03/14 00:01:06;;;;;;;10.03;7.30;;;;;;;11.58;66.29;99834.09;5031008;28;20046;-67
2022/03/14 00:03:41;;;;;;;8.27;7.57;;;;;;;11.51;66.08;99813.25;5033524;28;20053;-67
2022/03/14 00:06:10;;;;;;;7.63;6.80;;;;;;;11.42;66.15;99799.16;5033502;28;20057;-67
2022/03/14 00:08:40;;;;;;;8.30;7.47;;;;;;;11.61;66.20;99818.66;5025588;28;20137;-68
2022/03/14 00:11:07;;;;;;;7.60;7.13;;;;;;;11.57;66.25;99812.84;5028453;28;20831;-68
2022/03/14 00:13:34;;;;;;;7.07;6.60;;;;;;;11.43;66.13;99786.81;5019451;28;20327;-66
2022/03/14 00:16:03;;;;;;;7.17;6.57;;;;;;;11.40;66.18;99787.44;5024139;28;20077;-68
2022/03/14 00:18:34;;;;;;;8.17;7.53;;;;;;;11.48;66.07;99816.66;5025504;28;20081;-67
2022/03/14 00:21:02;;;;;;;7.97;7.17;;;;;;;11.27;66.10;99783.44;5025256;28;20077;-67
2022/03/14 00:23:29;;;;;;;9.07;8.37;;;;;;;11.24;66.19;99797.19;5027625;28;20138;-69
2022/03/14 00:25:56;;;;;;;7.63;7.13;;;;;;;11.27;66.33;99810.56;5023401;28;20132;-68
2022/03/14 00:28:23;;;;;;;7.03;6.57;;;;;;;11.21;66.34;99807.00;5023899;28;20080;-67
2022/03/14 00:30:49;;;;;;;7.83;7.23;;;;;;;11.30;66.45;99810.78;5030849;28;20556;-68
2022/03/14 00:33:16;;;;;;;8.13;7.20;;;;;;;11.27;66.42;99788.19;5029205;28;20136;-68
2022/03/14 00:35:43;;;;;;;10.77;7.83;;;;;;;11.47;66.29;99810.22;5022268;28;20081;-67
2022/03/14 00:38:10;;;;;;;9.77;7.80;;;;;;;11.51;66.16;99794.50;5032370;28;20049;-67
2022/03/14 00:40:37;;;;;;;12.47;8.60;;;;;;;11.50;66.41;99787.25;5026121;28;20512;-66
2022/03/14 00:43:04;;;;;;;9.37;7.23;;;;;;;11.38;66.55;99754.19;5026500;28;20166;-66
2022/03/14 00:45:31;;;;;;;9.80;7.30;;;;;;;11.72;66.32;99802.53;5021215;28;20567;-67
2022/03/14 00:48:01;;;;;;;8.23;7.63;;;;;;;11.65;66.31;99788.13;5025928;28;20527;-66
2022/03/14 00:50:27;;;;;;;9.07;8.00;;;;;;;11.32;66.50;99721.03;5033350;28;20128;-67
2022/03/14 00:52:54;;;;;;;9.90;7.47;;;;;;;11.72;66.41;99782.97;5032907;28;20128;-68
2022/03/14 00:55:21;;;;;;;15.07;8.30;;;;;;;11.61;66.53;99757.97;5024339;28;20086;-68
2022/03/14 00:57:48;;;;;;;9.27;7.13;;;;;;;11.65;66.34;99755.38;5023750;28;20069;-68
2022/03/14 01:00:15;;;;;;;8.70;7.80;;;;;;;11.81;66.58;99776.34;5032131;28;20128;-68
2022/03/14 01:02:42;;;;;;;9.10;7.23;;;;;;;11.86;66.67;99781.06;5031985;28;20049;-68
2022/03/14 01:05:09;;;;;;;7.80;7.20;;;;;;;11.45;66.60;99706.25;5032041;28;20053;-69
2022/03/14 01:07:36;;;;;;;8.17;7.43;;;;;;;11.88;66.47;99772.38;5028594;28;20141;-68
2022/03/14 01:10:04;;;;;;;7.83;6.77;;;;;;;11.87;66.42;99774.34;5019300;28;20477;-68
2022/03/14 01:12:32;;;;;;;8.40;7.80;;;;;;;11.81;66.32;99762.38;5025494;28;20132;-68
2022/03/14 01:15:00;;;;;;;8.17;7.43;;;;;;;11.75;66.12;99759.97;5026440;28;20076;-68
2022/03/14 01:17:27;;;;;;;7.47;6.87;;;;;;;11.81;66.09;99769.94;5026454;28;20455;-68
2022/03/14 01:19:54;;;;;;;7.77;7.27;;;;;;;11.73;65.93;99762.25;5035497;28;20127;-67
2022/03/14 01:22:21;;;;;;;7.50;6.70;;;;;;;11.56;66.04;99741.31;5022651;28;20099;-67
2022/03/14 01:24:48;;;;;;;9.90;9.10;;;;;;;11.66;65.96;99761.81;5018986;28;20175;-66
2022/03/14 01:27:15;;;;;;;10.07;9.17;;;;;;;11.63;65.81;99763.28;5022636;28;20638;-67
2022/03/14 01:29:42;;;;;;;9.60;7.93;;;;;;;11.73;66.08;99773.44;5028080;28;20049;-68
2022/03/14 01:32:12;;;;;;;8.90;8.10;;;;;;;11.71;66.04;99770.13;5029660;28;20496;-68
2022/03/14 01:34:39;;;;;;;8.20;7.32;;;;;;;11.55;65.80;99745.22;5022176;28;20073;-67
2022/03/14 01:37:06;;;;;;;12.53;7.40;;;;;;;11.60;65.93;99764.72;5030376;28;20164;-67
2022/03/14 01:39:33;;;;;;;8.30;7.70;;;;;;;11.54;66.05;99754.75;5025831;28;20041;-67
2022/03/14 01:42:00;;;;;;;9.97;7.43;;;;;;;11.60;65.77;99775.06;5019620;28;20240;-67
2022/03/14 01:44:27;;;;;;;7.90;7.20;;;;;;;11.59;66.04;99768.66;5022960;28;20141;-66
2022/03/14 01:46:54;;;;;;;7.83;7.13;;;;;;;11.43;65.78;99746.84;5027507;28;20168;-66
2022/03/14 01:49:22;;;;;;;8.53;7.17;;;;;;;11.42;65.86;99739.59;5026949;28;20050;-67
2022/03/14 01:51:54;;;;;;;11.07;7.97;;;;;;;11.21;65.85;99706.38;5027331;28;20080;-67
2022/03/14 01:54:21;;;;;;;7.57;7.17;;;;;;;11.52;65.93;99762.63;5022242;28;20539;-66
2022/03/14 01:56:48;;;;;;;8.13;7.43;;;;;;;11.50;65.91;99753.72;5027309;28;20072;-68
2022/03/14 01:59:15;;;;;;;8.33;7.53;;;;;;;11.41;65.89;99738.75;5026528;28;20469;-66
2022/03/14 02:01:42;;;;;;;9.50;8.60;;;;;;;11.39;65.96;99741.03;5025790;28;20448;-65
2022/03/14 02:04:09;;;;;;;8.57;7.77;;;;;;;11.34;65.95;99733.56;5021198;28;20100;-67
2022/03/14 02:06:37;;;;;;;7.63;7.13;;;;;;;11.24;65.77;99730.94;5023229;28;20132;-64
2022/03/14 02:09:03;;;;;;;10.43;8.20;;;;;;;11.16;65.97;99712.09;5025790;28;20047;-65
2022/03/14 02:11:31;;;;;;;8.33;7.53;;;;;;;11.38;65.83;99753.34;5025327;28;20488;-66
2022/03/14 02:13:57;;;;;;;9.43;8.70;;;;;;;11.37;66.19;99748.91;5025674;28;20144;-65
2022/03/14 02:16:25;;;;;;;7.77;7.07;;;;;;;11.44;66.24;99749.34;5026231;28;20475;-66
2022/03/14 02:18:52;;;;;;;8.40;7.60;;;;;;;11.29;66.13;99730.88;5027637;28;20041;-66
2022/03/14 02:21:19;;;;;;;8.10;7.50;;;;;;;11.42;66.26;99751.63;5024460;28;20152;-67
2022/03/14 02:23:45;;;;;;;9.03;7.97;;;;;;;10.92;66.29;99670.28;5017531;28;20115;-66
2022/03/14 02:26:12;;;;;;;8.80;7.67;;;;;;;11.43;66.25;99753.28;5016971;28;20148;-65
2022/03/14 02:28:39;;;;;;;10.90;7.97;;;;;;;11.36;66.05;99736.06;5025488;28;20103;-66
2022/03/14 02:31:06;;;;;;;8.67;7.97;;;;;;;11.37;66.12;99743.31;5026855;28;20490;-66
2022/03/14 02:33:33;;;;;;;7.93;7.43;;;;;;;11.33;65.88;99726.31;5028922;28;20504;-68
2022/03/14 02:36:00;;;;;;;7.07;6.57;;;;;;;11.45;65.68;99742.59;5022282;28;20128;-67
2022/03/14 02:38:27;;;;;;;7.07;6.67;;;;;;;11.37;65.48;99720.94;5025209;28;20136;-68
2022/03/14 02:40:54;;;;;;;8.73;7.67;;;;;;;11.52;65.20;99737.47;5028507;28;20049;-68
2022/03/14 02:43:24;;;;;;;7.97;7.23;;;;;;;11.59;65.51;99723.91;5025687;28;20081;-68
2022/03/14 02:45:54;;;;;;;8.57;7.57;;;;;;;11.66;65.36;99729.09;5023384;28;20119;-67
2022/03/14 02:48:23;;;;;;;9.50;8.90;;;;;;;11.51;65.10;99693.03;5022919;28;20046;-67
2022/03/14 02:50:53;;;;;;;7.70;7.20;;;;;;;11.65;65.01;99715.41;5026032;28;20081;-66
2022/03/14 02:53:20;;;;;;;8.60;7.63;;;;;;;11.64;65.11;99709.00;5024886;28;20053;-67
2022/03/14 02:55:48;;;;;;;8.50;7.80;;;;;;;11.60;64.60;99696.78;5025983;28;20045;-67
2022/03/14 02:58:15;;;;;;;7.47;6.60;;;;;;;11.56;64.65;99679.78;5043117;28;20076;-66
2022/03/14 03:00:42;;;;;;;7.50;6.93;;;;;;;11.55;64.34;99680.06;5030247;28;20506;-67
2022/03/14 03:03:11;;;;;;;6.67;6.17;;;;;;;11.69;64.52;99702.47;5017021;28;20054;-67
2022/03/14 03:05:43;;;;;;;9.37;8.10;;;;;;;11.55;64.15;99669.72;5029897;28;20051;-68
2022/03/14 03:08:12;;;;;;;7.03;6.43;;;;;;;11.66;64.14;99677.91;5023532;28;20049;-68
2022/03/14 03:10:39;;;;;;;7.47;6.87;;;;;;;11.81;64.08;99688.81;5023924;28;20073;-67
2022/03/14 03:13:06;;;;;;;7.03;6.37;;;;;;;11.69;64.09;99675.34;5027674;28;20078;-68
2022/03/14 03:15:35;;;;;;;7.37;6.77;;;;;;;11.76;63.66;99684.16;5026266;28;20133;-68
2022/03/14 03:18:01;;;;;;;7.97;7.33;;;;;;;11.66;63.50;99649.94;5025851;28;20215;-68
2022/03/14 03:20:28;;;;;;;7.80;7.13;;;;;;;11.83;63.33;99673.38;5028585;28;20045;-68
2022/03/14 03:22:55;;;;;;;8.03;7.40;;;;;;;11.86;63.18;99652.38;5025534;28;20133;-68
2022/03/14 03:25:22;;;;;;;7.33;6.83;;;;;;;11.79;63.40;99637.94;5030061;28;20144;-68
2022/03/14 03:27:49;;;;;;;7.03;6.33;;;;;;;11.97;63.44;99662.22;5031946;28;20055;-68
2022/03/14 03:30:23;;;;;;;6.80;6.37;;;;;;;11.90;63.24;99636.63;5032089;28;20058;-68
2022/03/14 03:32:50;;;;;;;6.57;6.20;;;;;;;11.87;62.78;99640.06;5020944;28;20046;-67
2022/03/14 03:35:17;;;;;;;7.70;7.10;;;;;;;11.97;62.74;99645.44;5027844;28;20053;-66
2022/03/14 03:37:44;;;;;;;6.60;6.20;;;;;;;11.93;62.63;99641.59;5024461;28;20148;-69
2022/03/14 03:40:11;;;;;;;7.77;7.20;;;;;;;11.88;62.34;99633.31;5025660;28;20073;-69
2022/03/14 03:42:38;;;;;;;7.53;7.03;;;;;;;11.79;62.21;99632.34;5033329;28;20580;-69
2022/03/14 03:45:06;;;;;;;6.90;6.53;;;;;;;11.77;62.20;99627.06;5031804;28;20045;-69
2022/03/14 03:47:32;;;;;;;6.57;6.27;;;;;;;11.77;62.11;99646.66;5028727;28;20179;-67
2022/03/14 03:49:59;;;;;;;8.23;6.90;;;;;;;11.84;61.90;99649.06;5026994;28;20045;-68
2022/03/14 03:52:26;;;;;;;7.37;6.87;;;;;;;11.48;62.02;99588.22;5029344;28;20558;-68
2022/03/14 03:54:53;;;;;;;8.13;7.53;;;;;;;11.87;62.06;99642.84;5032514;28;20216;-68
2022/03/14 03:57:20;;;;;;;8.00;7.50;;;;;;;11.78;61.73;99622.31;5026691;28;20140;-67
2022/03/14 03:59:47;;;;;;;8.30;7.60;;;;;;;11.84;61.91;99619.13;5028707;28;20134;-67
2022/03/14 04:02:18;;;;;;;7.63;6.87;;;;;;;12.00;61.63;99639.22;5031678;28;20156;-67
2022/03/14 04:04:50;;;;;;;7.20;6.70;;;;;;;11.96;62.18;99612.16;5023013;28;20046;-67
2022/03/14 04:07:23;;;;;;;8.00;7.40;;;;;;;12.09;62.42;99631.72;5026802;28;20944;-67
2022/03/14 04:09:55;;;;;;;8.10;7.40;;;;;;;12.04;62.12;99629.06;5031608;28;20441;-68
2022/03/14 04:12:24;;;;;;;7.63;6.93;;;;;;;12.04;61.83;99629.06;5025640;28;20046;-68
2022/03/14 04:14:51;;;;;;;7.13;6.63;;;;;;;12.11;62.16;99633.41;5026958;28;20081;-68
2022/03/14 04:17:19;;;;;;;7.67;7.10;;;;;;;12.14;62.11;99628.00;5030612;28;20049;-68
2022/03/14 04:19:47;;;;;;;9.07;6.50;;;;;;;12.09;62.55;99620.53;5029797;28;20171;-67
2022/03/14 04:22:15;;;;;;;6.70;6.30;;;;;;;11.98;62.61;99612.69;5034244;28;20128;-68
2022/03/14 04:24:42;;;;;;;7.43;6.87;;;;;;;12.05;62.57;99613.91;5031286;28;20157;-69
2022/03/14 04:27:09;;;;;;;6.77;6.37;;;;;;;12.18;62.71;99612.22;5023292;28;20080;-68
2022/03/14 04:29:36;;;;;;;7.70;7.10;;;;;;;12.11;62.94;99599.81;5031221;28;20077;-68
2022/03/14 04:32:03;;;;;;;8.23;6.60;;;;;;;12.22;63.32;99630.06;5033436;28;20484;-68
2022/03/14 04:34:31;;;;;;;8.17;7.50;;;;;;;12.18;63.13;99600.22;5028428;28;20136;-68
2022/03/14 04:36:58;;;;;;;9.03;7.50;;;;;;;12.35;63.27;99633.16;5032772;28;20496;-68
2022/03/14 04:39:25;;;;;;;7.10;6.50;;;;;;;12.07;63.42;99603.25;5031736;28;20047;-67
2022/03/14 04:41:54;;;;;;;7.90;7.20;;;;;;;12.23;63.65;99642.06;5026486;28;20092;-67
2022/03/14 04:44:21;;;;;;;8.15;7.22;;;;;;;12.06;63.66;99626.75;5032814;28;20417;-67
2022/03/14 04:46:48;;;;;;;7.23;6.73;;;;;;;12.22;63.94;99651.63;5028520;28;20419;-67
2022/03/14 04:49:15;;;;;;;7.57;6.87;;;;;;;12.27;63.83;99655.16;5030433;28;20045;-68
2022/03/14 04:51:43;;;;;;;7.70;7.00;;;;;;;12.24;63.69;99654.91;5031037;28;20083;-67
2022/03/14 04:54:10;;;;;;;7.60;6.87;;;;;;;12.21;64.22;99661.16;5031752;28;20485;-67
2022/03/14 04:56:37;;;;;;;8.43;7.60;;;;;;;12.16;64.05;99658.47;5023749;28;20181;-68
2022/03/14 04:59:04;;;;;;;7.70;7.20;;;;;;;12.14;64.00;99663.56;5027778;28;20069;-68
2022/03/14 05:01:31;;;;;;;8.07;7.43;;;;;;;12.02;63.90;99638.91;5028713;28;20145;-68
2022/03/14 05:03:58;;;;;;;7.90;7.20;;;;;;;11.90;63.76;99603.06;5033265;28;20052;-67
2022/03/14 05:06:26;;;;;;;7.13;6.53;;;;;;;12.16;63.99;99647.28;5018727;28;20133;-66
2022/03/14 05:08:53;;;;;;;7.83;6.80;;;;;;;12.17;64.09;99632.13;5018250;28;20133;-66
2022/03/14 05:11:20;;;;;;;9.93;7.03;;;;;;;12.16;64.05;99614.50;5043146;28;20091;-67
2022/03/14 05:13:47;;;;;;;8.40;7.60;;;;;;;11.84;63.77;99563.16;5028576;28;20497;-68
2022/03/14 05:16:13;;;;;;;7.00;6.60;;;;;;;11.97;64.12;99578.28;5024346;28;20132;-67
2022/03/14 05:18:40;;;;;;;7.37;6.97;;;;;;;12.19;64.44;99644.66;5027400;28;20512;-67
2022/03/14 05:21:07;;;;;;;8.00;7.27;;;;;;;12.26;64.28;99641.44;5026433;28;20561;-67
2022/03/14 05:23:34;;;;;;;7.63;6.80;;;;;;;12.38;63.96;99652.13;5020336;28;20084;-66
2022/03/14 05:26:01;;;;;;;7.87;7.23;;;;;;;12.42;63.78;99653.13;5025753;28;20103;-66
2022/03/14 05:28:28;;;;;;;7.77;7.23;;;;;;;12.45;64.00;99644.94;5026310;28;20104;-67
2022/03/14 05:30:55;;;;;;;7.53;6.93;;;;;;;12.39;63.75;99634.16;5016216;28;20552;-67
2022/03/14 05:33:22;;;;;;;7.60;7.20;;;;;;;12.38;64.21;99654.91;5024239;28;20144;-67
2022/03/14 05:35:50;;;;;;;6.53;6.13;;;;;;;12.20;64.23;99646.31;5031303;28;20481;-67
2022/03/14 05:38:17;;;;;;;7.17;6.50;;;;;;;12.30;64.09;99648.88;5032274;28;20453;-66
2022/03/14 05:40:44;;;;;;;7.40;6.90;;;;;;;12.15;63.89;99617.63;5030174;28;20069;-67
2022/03/14 05:43:11;;;;;;;7.13;6.63;;;;;;;12.41;63.90;99654.25;5026849;28;20136;-67
2022/03/14 05:45:38;;;;;;;8.93;8.33;;;;;;;12.36;63.92;99655.22;5018665;28;20081;-67
2022/03/14 05:48:05;;;;;;;8.97;7.10;;;;;;;12.26;63.78;99622.69;5031727;28;20073;-66
2022/03/14 05:50:32;;;;;;;7.30;6.63;;;;;;;12.43;63.92;99635.19;5025346;28;20045;-67
2022/03/14 05:52:59;;;;;;;7.43;6.80;;;;;;;12.24;63.84;99622.19;5024248;28;20132;-67
2022/03/14 05:55:27;;;;;;;7.40;7.00;;;;;;;12.29;64.33;99643.63;5023839;28;20475;-67
2022/03/14 05:57:54;;;;;;;7.73;7.23;;;;;;;12.14;64.30;99628.00;5033347;28;20088;-65
2022/03/14 06:00:24;;;;;;;7.77;7.07;;;;;;;12.19;64.56;99657.84;5031048;28;20140;-66
2022/03/14 06:02:52;;;;;;;;;;;;;;;11.93;63.54;99658.41;5031013;28;20069;-68
2022/03/14 06:05:21;;;;;;;5.57;5.07;;;;;;;11.80;63.84;99628.41;5022139;28;19928;-69
2022/03/14 06:07:48;;;;;;;7.23;6.60;;;;;;;11.96;63.27;99659.72;5025443;28;20503;-68
2022/03/14 06:10:16;;;;;;;5.43;5.00;;;;;;;11.91;62.92;99659.84;5030881;28;20121;-68
2022/03/14 06:12:44;;;;;;;5.50;5.00;;;;;;;11.90;62.49;99661.81;5017140;28;20084;-67
2022/03/14 06:15:15;;;;;;;5.70;5.30;;;;;;;11.87;62.18;99662.44;5022953;28;20456;-66
2022/03/14 06:17:43;;;;;;;6.20;5.77;;;;;;;11.95;62.21;99664.50;5019927;28;20099;-67
2022/03/14 06:20:12;;;;;;;5.67;5.20;;;;;;;12.01;62.60;99654.84;5023991;28;20145;-67
2022/03/14 06:22:46;;;;;;;6.57;5.93;;;;;;;12.12;62.58;99669.47;5026795;28;20535;-67
2022/03/14 06:25:17;;;;;;;6.17;5.57;;;;;;;11.94;62.56;99673.22;5027390;28;20083;-67
2022/03/14 06:27:44;;;;;;;5.40;5.10;;;;;;;12.03;62.65;99677.78;5025406;28;20053;-67
2022/03/14 06:30:13;;;;;;;6.93;6.00;;;;;;;12.08;62.17;99660.84;5025938;28;20802;-68
2022/03/14 06:32:41;;;;;;;6.07;5.60;;;;;;;11.98;62.10;99649.88;5030181;28;20082;-68
2022/03/14 06:35:12;;;;;;;6.30;5.70;;;;;;;12.10;62.44;99649.34;5030464;28;20095;-66
2022/03/14 06:37:39;;;;;;;6.37;5.87;;;;;;;12.26;62.77;99658.25;5026204;28;20151;-66
2022/03/14 06:40:07;;;;;;;6.50;6.00;;;;;;;12.20;62.92;99651.09;5025513;28;20049;-66
2022/03/14 06:42:38;;;;;;;7.43;7.03;;;;;;;12.08;62.87;99613.28;5032389;28;20099;-66
2022/03/14 06:45:06;;;;;;;7.83;7.17;;;;;;;12.37;62.82;99642.88;5028867;28;20141;-67
2022/03/14 06:47:34;;;;;;;7.70;7.00;;;;;;;12.51;62.82;99673.63;5028192;28;20168;-68
2022/03/14 06:50:00;;;;;;;7.70;7.10;;;;;;;12.53;62.74;99663.78;5018734;28;20080;-67
2022/03/14 06:52:27;;;;;;;7.93;7.30;;;;;;;12.37;62.81;99637.25;5028378;28;20187;-68
2022/03/14 06:54:54;;;;;;;8.33;7.63;;;;;;;12.57;62.84;99669.56;5024084;28;20136;-67
2022/03/14 06:57:21;;;;;;;7.87;7.07;;;;;;;12.42;62.96;99656.75;5027523;28;20133;-65
2022/03/14 06:59:48;;;;;;;8.43;6.97;;;;;;;12.35;62.98;99659.16;5030297;28;20456;-66
2022/03/14 07:02:15;;;;;;;7.90;7.30;;;;;;;12.51;63.25;99696.88;5028051;28;20141;-66
2022/03/14 07:04:42;;;;;;;7.90;7.07;;;;;;;12.39;63.06;99685.38;5018992;28;20064;-66
2022/03/14 07:07:10;;;;;;;8.13;7.30;;;;;;;12.50;63.07;99700.00;5026321;28;20103;-67
2022/03/14 07:09:37;;;;;;;8.37;7.57;;;;;;;12.53;63.17;99710.56;5023094;28;20216;-68
2022/03/14 07:12:04;;;;;;;7.40;6.90;;;;;;;12.46;63.08;99697.00;5027925;28;20136;-66
2022/03/14 07:14:31;;;;;;;7.53;7.13;;;;;;;12.51;63.02;99710.88;5030358;28;20089;-67
2022/03/14 07:16:58;;;;;;;7.60;7.10;;;;;;;12.41;63.03;99685.91;5022638;28;20144;-68
2022/03/14 07:19:25;;;;;;;7.07;6.67;;;;;;;12.49;63.08;99703.94;5018328;28;20046;-67
2022/03/14 07:21:52;;;;;;;24.20;16.70;;;;;;;12.11;63.51;99662.22;5022892;28;20088;-67
2022/03/14 07:24:18;;;;;;;8.70;8.00;;;;;;;12.41;63.63;99719.50;5022942;28;20081;-68
2022/03/14 07:26:45;;;;;;;9.27;8.30;;;;;;;12.24;63.88;99705.31;5031464;28;20128;-67
2022/03/14 07:29:13;;;;;;;9.80;8.13;;;;;;;12.37;63.85;99735.25;5024079;28;20045;-67
2022/03/14 07:31:41;;;;;;;9.60;8.00;;;;;;;12.40;63.79;99737.44;5023959;28;20506;-67
2022/03/14 07:34:09;;;;;;;8.53;7.90;;;;;;;12.41;63.88;99736.31;5025690;28;20056;-69
2022/03/14 07:36:37;;;;;;;8.80;7.40;;;;;;;12.45;63.78;99739.31;5029700;28;20575;-68
2022/03/14 07:39:04;;;;;;;9.07;6.73;;;;;;;12.40;63.99;99731.84;5026389;28;20056;-67
2022/03/14 07:41:32;;;;;;;9.73;8.80;;;;;;;12.15;64.12;99707.19;5020812;28;20070;-67
2022/03/14 07:44:00;;;;;;;7.47;6.80;;;;;;;12.30;64.06;99740.44;5028887;28;20463;-69
2022/03/14 07:46:28;;;;;;;6.90;6.50;;;;;;;12.18;63.93;99715.78;5027259;28;20045;-71
2022/03/14 07:48:55;;;;;;;8.93;6.80;;;;;;;12.08;64.08;99700.03;5019037;28;20055;-72
2022/03/14 07:51:22;;;;;;;8.17;6.80;;;;;;;12.27;63.94;99719.53;5038813;28;20183;-71
2022/03/14 07:53:49;;;;;;;7.73;7.17;;;;;;;12.24;63.71;99688.50;5018483;28;20129;-71
2022/03/14 07:56:16;;;;;;;9.77;8.83;;;;;;;12.37;63.63;99696.06;5022999;28;20140;-71
2022/03/14 07:58:44;;;;;;;9.43;8.93;;;;;;;12.50;63.59;99691.59;5024853;28;20128;-72
2022/03/14 08:01:11;;;;;;;10.67;9.83;;;;;;;12.57;63.48;99692.81;5024338;28;20129;-69
2022/03/14 08:03:38;;;;;;;10.33;9.63;;;;;;;12.59;63.28;99683.28;5028510;28;20135;-69
2022/03/14 08:06:07;;;;;;;10.93;9.90;;;;;;;12.52;63.60;99680.91;5026954;28;20147;-68
2022/03/14 08:08:34;;;;;;;8.80;8.10;;;;;;;12.74;63.40;99699.72;5025185;28;20088;-69
2022/03/14 08:11:04;;;;;;;9.77;7.13;;;;;;;12.74;63.40;99683.72;5032707;28;20527;-69
2022/03/14 08:13:33;;;;;;;8.53;7.83;;;;;;;12.62;63.17;99654.66;5035536;28;20140;-68
2022/03/14 08:16:00;;;;;;;9.30;8.53;;;;;;;12.38;63.01;99616.53;5033509;28;20116;-73
2022/03/14 08:18:26;;;;;;;7.87;7.27;;;;;;;12.66;63.21;99662.09;5031631;28;20052;-72
2022/03/14 08:20:57;;;;;;;10.20;8.60;;;;;;;12.66;63.01;99664.06;5030738;28;20480;-72
2022/03/14 08:23:24;;;;;;;;;;;;;;;12.83;63.54;99686.63;5034898;28;20146;-72
2022/03/14 08:25:51;;;;;;;10.23;9.43;;;;;;;12.91;63.00;99697.06;5028978;28;19990;-70
2022/03/14 08:28:18;;;;;;;9.87;9.30;;;;;;;12.83;62.75;99700.63;5027039;28;20081;-71
2022/03/14 08:30:47;;;;;;;8.37;7.60;;;;;;;12.57;62.47;99666.78;5032953;28;20073;-71
2022/03/14 08:33:16;;;;;;;8.10;7.60;;;;;;;12.51;62.08;99657.69;5026368;28;20132;-71
2022/03/14 08:35:44;;;;;;;10.13;9.23;;;;;;;13.00;62.32;99711.97;5035921;28;20104;-70
2022/03/14 08:38:13;;;;;;;11.50;9.30;;;;;;;13.13;62.28;99717.84;5030735;28;20128;-71
2022/03/14 08:40:41;;;;;;;11.02;10.30;;;;;;;13.21;62.67;99728.31;5025611;28;20056;-70
2022/03/14 08:43:08;;;;;;;9.47;8.70;;;;;;;13.23;62.64;99723.19;5026048;28;20085;-71
2022/03/14 08:45:35;;;;;;;10.00;9.20;;;;;;;13.21;62.72;99703.06;5032385;28;20868;-69
2022/03/14 08:48:02;;;;;;;8.83;8.10;;;;;;;13.27;62.44;99727.91;5026514;28;20088;-70
2022/03/14 08:50:31;;;;;;;9.60;8.83;;;;;;;13.08;62.34;99695.56;5032940;28;20135;-71
2022/03/14 08:52:58;;;;;;;13.90;8.07;;;;;;;13.11;62.37;99715.38;5038343;28;20049;-71
2022/03/14 08:55:25;;;;;;;9.80;8.77;;;;;;;13.25;62.12;99734.97;5027529;28;20452;-70
2022/03/14 08:57:52;;;;;;;9.83;9.10;;;;;;;13.37;62.26;99742.81;5025289;28;20788;-74
2022/03/14 09:00:19;;;;;;;9.33;8.57;;;;;;;13.44;62.28;99737.59;5024981;28;20128;-78
2022/03/14 09:02:46;;;;;;;9.13;8.43;;;;;;;13.48;61.92;99745.03;5022018;28;20077;-70
2022/03/14 09:05:13;;;;;;;10.33;8.20;;;;;;;13.49;62.43;99741.06;5027692;28;20069;-71
2022/03/14 09:07:40;;;;;;;10.60;9.80;;;;;;;13.48;62.42;99750.63;5024547;28;20049;-72
2022/03/14 09:10:11;;;;;;;10.07;9.10;;;;;;;13.39;62.15;99751.72;5029822;28;20133;-77
2022/03/14 09:12:46;;;;;;;11.33;10.43;;;;;;;13.49;62.46;99757.88;5023907;28;20946;-70
2022/03/14 09:15:13;;;;;;;9.97;8.80;;;;;;;13.45;62.13;99750.44;5029846;28;20583;-71
2022/03/14 09:17:52;;;;;;;12.63;10.27;;;;;;;13.46;62.71;99747.31;5028637;28;20053;-69
2022/03/14 09:20:20;;;;;;;10.07;9.03;;;;;;;13.37;62.17;99714.78;5002353;28;20073;-69
2022/03/14 09:22:48;;;;;;;12.13;9.77;;;;;;;13.61;61.99;99756.50;5028091;28;20073;-68
2022/03/14 09:25:15;;;;;;;8.80;7.97;;;;;;;13.47;61.78;99725.72;5021646;28;20136;-69
2022/03/14 09:27:43;;;;;;;10.97;9.70;;;;;;;13.62;61.72;99738.50;5034317;28;20507;-69
2022/03/14 09:30:12;;;;;;;9.33;8.43;;;;;;;13.62;62.08;99735.72;5028807;28;20115;-69
2022/03/14 09:32:39;;;;;;;15.67;9.70;;;;;;;13.76;61.75;99742.06;5028806;28;20081;-69
2022/03/14 09:35:08;;;;;;;10.43;8.53;;;;;;;13.78;61.97;99739.78;5033240;28;20049;-70
2022/03/14 09:37:37;;;;;;;9.27;8.40;;;;;;;13.87;61.94;99740.63;5029930;28;20052;-69
2022/03/14 09:40:10;;;;;;;9.87;8.90;;;;;;;13.89;61.89;99732.72;5030208;28;20041;-67
2022/03/14 09:42:40;;;;;;;10.37;9.33;;;;;;;13.97;62.17;99737.53;5030966;28;20548;-68
2022/03/14 09:45:07;;;;;;;;;;;;;;;14.02;63.71;99730.97;5030418;28;20080;-69
2022/03/14 09:47:39;;;;;;;11.00;10.00;;;;;;;14.06;62.78;99717.13;5015804;28;20329;-70
2022/03/14 09:50:15;;;;;;;10.77;9.50;;;;;;;14.10;62.81;99720.91;5030875;28;20049;-69
2022/03/14 09:52:43;;;;;;;11.60;10.60;;;;;;;14.14;62.48;99719.13;5031426;28;20083;-70
2022/03/14 09:55:12;;;;;;;9.43;8.63;;;;;;;14.22;62.46;99729.53;5027922;28;20500;-69
2022/03/14 09:57:39;;;;;;;8.90;8.00;;;;;;;14.14;62.45;99711.50;5025088;28;20061;-69
2022/03/14 10:00:10;;;;;;;11.47;10.33;;;;;;;14.20;62.50;99715.00;5025171;28;20128;-68
2022/03/14 10:02:39;;;;;;;11.30;10.40;;;;;;;14.31;62.37;99726.78;5026183;28;20049;-69
2022/03/14 10:05:12;;;;;;;10.13;8.93;;;;;;;14.16;62.54;99698.00;5029216;28;20081;-69
2022/03/14 10:07:42;;;;;;;11.03;10.23;;;;;;;14.35;62.39;99716.53;5025651;28;20132;-69
2022/03/14 10:10:09;;;;;;;;;;;;;;;14.34;63.99;99704.47;5028443;28;20128;-69
2022/03/14 10:12:36;;;;;;;11.93;9.73;;;;;;;14.20;62.70;99676.53;5021682;28;20288;-70
2022/03/14 10:15:09;;;;;;;8.47;7.70;;;;;;;14.23;62.47;99683.47;5025434;28;20495;-68
2022/03/14 10:17:36;;;;;;;9.23;8.43;;;;;;;14.34;62.59;99710.09;5029856;28;20140;-68
2022/03/14 10:20:06;;;;;;;9.50;8.70;;;;;;;14.21;62.24;99682.97;5023898;28;20073;-69
2022/03/14 10:22:38;;;;;;;9.15;8.25;;;;;;;14.28;62.20;99717.00;5023907;28;20082;-68
2022/03/14 10:25:12;;;;;;;11.13;9.23;;;;;;;14.17;62.14;99684.78;5029610;28;20061;-68
2022/03/14 10:27:44;;;;;;;14.27;8.13;;;;;;;13.94;61.96;99645.56;5027619;28;20076;-69
2022/03/14 10:30:31;;;;;;;8.70;8.00;;;;;;;14.23;62.71;99703.13;5025936;28;20545;-69
2022/03/14 10:33:08;;;;;;;11.07;9.07;;;;;;;14.32;62.26;99706.78;5024592;28;20049;-69
2022/03/14 10:35:36;;;;;;;12.80;9.87;;;;;;;14.26;61.84;99696.88;5021363;28;20517;-69
2022/03/14 10:38:06;;;;;;;10.47;9.20;;;;;;;14.33;61.80;99702.81;5029833;28;20220;-67
2022/03/14 10:40:39;;;;;;;10.57;9.13;;;;;;;14.40;61.86;99716.41;5023227;28;20140;-72
2022/03/14 10:43:27;;;;;;;13.60;9.63;;;;;;;14.38;62.30;99739.19;5024054;28;20509;-68
2022/03/14 10:45:55;;;;;;;11.57;10.13;;;;;;;14.43;62.13;99736.22;5022871;28;20135;-68
2022/03/14 10:48:38;;;;;;;10.23;9.20;;;;;;;14.40;61.94;99728.47;5029658;28;20529;-68
2022/03/14 10:51:08;;;;;;;10.40;9.47;;;;;;;14.37;61.61;99737.53;5030131;28;20045;-68
2022/03/14 10:53:49;;;;;;;13.18;9.27;;;;;;;14.30;61.88;99770.88;5015274;28;20084;-69
2022/03/14 10:56:17;;;;;;;11.87;9.80;;;;;;;14.29;60.54;99737.50;5028443;28;20136;-69
2022/03/14 10:58:44;;;;;;;24.13;16.60;;;;;;;14.31;60.31;99710.75;5031232;28;20045;-68
2022/03/14 11:01:12;;;;;;;8.53;7.90;;;;;;;14.30;60.15;99680.19;5026066;28;20144;-68
2022/03/14 11:03:45;;;;;;;10.27;9.20;;;;;;;14.53;59.95;99689.34;5027403;28;20067;-68
2022/03/14 11:06:14;;;;;;;7.10;6.70;;;;;;;14.68;60.01;99700.13;5025021;28;20531;-69
2022/03/14 11:08:48;;;;;;;7.50;7.10;;;;;;;14.73;60.47;99714.00;5017063;28;20132;-68
2022/03/14 11:11:20;;;;;;;7.70;7.20;;;;;;;14.67;58.35;99704.91;5021861;28;20120;-68
2022/03/14 11:13:52;;;;;;;7.50;6.83;;;;;;;14.69;59.14;99710.19;5024428;28;20092;-69
2022/03/14 11:16:26;;;;;;;8.30;7.82;;;;;;;14.81;59.03;99726.41;5024653;28;20564;-68
2022/03/14 11:18:54;;;;;;;8.03;7.30;;;;;;;14.89;59.07;99720.78;5021554;28;20457;-69
2022/03/14 11:21:27;;;;;;;7.53;6.90;;;;;;;14.92;58.89;99728.56;5027489;28;20068;-69
2022/03/14 11:23:55;;;;;;;8.18;7.57;;;;;;;14.86;58.75;99721.44;5029644;28;20049;-69
2022/03/14 11:26:24;;;;;;;11.13;7.78;;;;;;;14.97;58.91;99726.75;5026759;28;20125;-69
2022/03/14 11:28:53;;;;;;;9.05;8.55;;;;;;;14.87;58.89;99711.88;5026693;28;20129;-69
2022/03/14 11:31:21;;;;;;;8.65;7.95;;;;;;;14.99;59.03;99724.44;5022009;28;20125;-68
2022/03/14 11:33:49;;;;;;;10.10;9.30;;;;;;;14.92;58.97;99700.44;5024759;28;20493;-69
2022/03/14 11:36:21;;;;;;;9.15;8.30;;;;;;;15.00;58.98;99714.84;5016702;28;20104;-69